createdAt,value
2019-03-27T00:01:39.004Z,17.50
2019-03-27T00:04:07.146Z,19.03
2019-03-27T00:06:35.319Z,25.88
2019-03-27T00:09:04.472Z,21.70
2019-03-27T00:11:33.392Z,20.80
2019-03-27T00:14:01.331Z,17.43
2019-03-27T00:16:29.660Z,21.17
2019-03-27T00:18:57.757Z,15.20
2019-03-27T00:21:25.846Z,18.60
2019-03-27T00:23:53.904Z,18.80
2019-03-27T00:26:22.020Z,14.40
2019-03-27T00:28:50.003Z,20.30
2019-03-27T00:31:20.185Z,23.40
2019-03-27T00:33:48.227Z,17.40
2019-03-27T00:36:16.434Z,23.63
2019-03-27T00:38:44.621Z,27.10
2019-03-27T00:41:12.765Z,20.67
2019-03-27T00:43:40.742Z,26.30
2019-03-27T00:46:08.831Z,17.70
2019-03-27T00:48:36.920Z,21.17
2019-03-27T00:51:04.947Z,19.23
2019-03-27T00:53:34.021Z,23.00
2019-03-27T00:56:01.974Z,22.47
2019-03-27T00:58:29.982Z,25.70
2019-03-27T01:01:11.976Z,20.20
2019-03-27T01:03:40.227Z,26.60
2019-03-27T01:06:08.249Z,20.57
2019-03-27T01:08:36.290Z,21.60
2019-03-27T01:11:04.796Z,19.80
2019-03-27T01:13:32.773Z,19.93
2019-03-27T01:16:00.901Z,23.03
2019-03-27T01:18:29.205Z,21.80
2019-03-27T01:20:57.254Z,21.00
2019-03-27T01:23:25.211Z,19.87
2019-03-27T01:25:53.350Z,20.13
2019-03-27T01:28:21.408Z,21.37
2019-03-27T01:30:49.610Z,22.93
2019-03-27T01:33:18.425Z,25.53
2019-03-27T01:35:46.652Z,26.90
2019-03-27T01:38:14.598Z,22.70
2019-03-27T01:40:42.767Z,23.10
2019-03-27T01:43:10.704Z,27.33
2019-03-27T01:45:38.736Z,18.63
2019-03-27T01:48:06.813Z,23.27
2019-03-27T01:50:34.816Z,26.37
2019-03-27T01:53:03.318Z,18.73
2019-03-27T01:55:31.300Z,19.13
2019-03-27T01:58:00.011Z,25.20
2019-03-27T02:00:28.127Z,22.23
2019-03-27T02:02:56.227Z,19.33
2019-03-27T02:05:24.251Z,18.77
2019-03-27T02:07:52.174Z,18.07
2019-03-27T02:10:20.174Z,21.80
2019-03-27T02:12:48.165Z,16.53
2019-03-27T02:15:16.326Z,16.03
2019-03-27T02:17:44.471Z,23.93
2019-03-27T02:20:12.503Z,21.63
2019-03-27T02:22:40.539Z,21.00
2019-03-27T02:25:08.824Z,22.77
2019-03-27T02:27:37.055Z,19.93
2019-03-27T02:30:06.273Z,19.87
2019-03-27T02:32:35.395Z,24.80
2019-03-27T02:35:04.067Z,20.17
2019-03-27T02:37:32.258Z,19.80
2019-03-27T02:40:00.879Z,18.83
2019-03-27T02:42:28.836Z,23.90
2019-03-27T02:44:56.791Z,20.10
2019-03-27T02:47:25.040Z,19.53
2019-03-27T02:49:53.166Z,31.73
2019-03-27T02:52:21.208Z,21.10
2019-03-27T02:54:49.293Z,21.87
2019-03-27T02:57:17.342Z,17.60
2019-03-27T02:59:45.349Z,20.67
2019-03-27T03:02:13.417Z,24.93
2019-03-27T03:04:41.382Z,28.85
2019-03-27T03:07:10.519Z,21.03
2019-03-27T03:09:38.584Z,20.90
2019-03-27T03:12:06.945Z,32.50
2019-03-27T03:14:35.031Z,24.03
2019-03-27T03:17:03.416Z,25.80
2019-03-27T03:19:31.662Z,23.30
2019-03-27T03:22:01.850Z,27.03
2019-03-27T03:24:30.911Z,28.37
2019-03-27T03:26:58.916Z,27.00
2019-03-27T03:29:28.160Z,22.53
2019-03-27T03:31:56.188Z,31.67
2019-03-27T03:34:24.385Z,34.67
2019-03-27T03:36:52.512Z,25.70
2019-03-27T03:39:20.566Z,30.53
2019-03-27T03:41:48.707Z,25.33
2019-03-27T03:44:16.649Z,23.67
2019-03-27T03:46:58.949Z,31.90
2019-03-27T03:49:14.531Z,28.53
2019-03-27T03:51:43.452Z,28.37
2019-03-27T03:54:11.645Z,33.60
2019-03-27T03:56:41.186Z,28.47
2019-03-27T03:59:12.194Z,31.90
2019-03-27T04:01:42.438Z,27.23
2019-03-27T04:04:12.442Z,25.00
2019-03-27T04:06:40.527Z,24.47
2019-03-27T04:09:08.517Z,31.23
2019-03-27T04:11:36.557Z,26.73
2019-03-27T04:14:04.886Z,24.90
2019-03-27T04:16:33.109Z,31.60
2019-03-27T04:19:01.031Z,32.57
2019-03-27T04:21:29.036Z,25.63
2019-03-27T04:23:57.020Z,28.23
2019-03-27T04:26:25.213Z,24.80
2019-03-27T04:28:53.295Z,35.47
2019-03-27T04:31:21.326Z,26.37
2019-03-27T04:33:49.399Z,30.90
2019-03-27T04:36:18.654Z,30.47
2019-03-27T04:38:46.949Z,29.27
2019-03-27T04:41:15.698Z,23.67
2019-03-27T04:43:43.866Z,28.27
2019-03-27T04:46:11.823Z,23.23
2019-03-27T04:48:39.938Z,28.17
2019-03-27T04:51:08.234Z,30.00
2019-03-27T04:53:36.397Z,26.03
2019-03-27T04:56:05.028Z,28.47
2019-03-27T04:58:33.087Z,31.33
2019-03-27T05:01:01.037Z,31.03
2019-03-27T05:03:29.201Z,28.00
2019-03-27T05:05:57.227Z,30.50
2019-03-27T05:08:25.291Z,25.17
2019-03-27T05:10:53.454Z,30.67
2019-03-27T05:13:21.552Z,29.93
2019-03-27T05:15:49.538Z,26.73
2019-03-27T05:18:17.554Z,27.40
2019-03-27T05:20:51.224Z,26.20
2019-03-27T05:23:19.170Z,32.30
2019-03-27T05:25:47.226Z,27.90
2019-03-27T05:28:15.346Z,32.97
2019-03-27T05:30:43.365Z,28.37
2019-03-27T05:33:11.578Z,33.43
2019-03-27T05:35:41.341Z,23.00
2019-03-27T05:38:09.472Z,25.87
2019-03-27T05:40:37.724Z,28.30
2019-03-27T05:43:05.975Z,24.63
2019-03-27T05:45:33.885Z,26.60
2019-03-27T05:48:02.987Z,35.33
2019-03-27T05:50:31.190Z,22.57
2019-03-27T05:52:59.443Z,20.77
2019-03-27T05:55:27.686Z,25.17
2019-03-27T05:57:56.067Z,28.37
2019-03-27T06:00:24.278Z,28.90
2019-03-27T06:02:52.432Z,28.53
2019-03-27T06:05:20.416Z,24.60
2019-03-27T06:07:48.434Z,23.63
2019-03-27T06:10:16.650Z,26.90
2019-03-27T06:12:44.810Z,27.53
2019-03-27T06:15:12.918Z,29.47
2019-03-27T06:17:41.970Z,31.37
2019-03-27T06:20:10.489Z,28.00
2019-03-27T06:22:38.442Z,30.57
2019-03-27T06:25:07.463Z,26.83
2019-03-27T06:27:35.686Z,26.60
2019-03-27T06:30:07.761Z,29.43
2019-03-27T06:32:36.228Z,25.43
2019-03-27T06:35:05.520Z,27.73
2019-03-27T06:37:33.699Z,27.70
2019-03-27T06:40:01.578Z,18.43
2019-03-27T06:42:29.623Z,31.67
2019-03-27T06:44:57.701Z,23.43
2019-03-27T06:47:26.407Z,20.93
2019-03-27T06:49:54.956Z,21.63
2019-03-27T06:52:23.074Z,25.53
2019-03-27T06:54:52.534Z,20.87
2019-03-27T06:57:21.204Z,19.27
2019-03-27T06:59:49.106Z,19.50
2019-03-27T07:02:17.249Z,20.20
2019-03-27T07:04:45.282Z,22.50
2019-03-27T07:07:13.188Z,17.33
2019-03-27T07:09:42.644Z,22.60
2019-03-27T07:12:20.882Z,23.57
2019-03-27T07:14:40.810Z,19.97
2019-03-27T07:17:08.824Z,17.77
2019-03-27T07:19:36.678Z,20.10
2019-03-27T07:22:05.243Z,19.40
2019-03-27T07:24:33.275Z,19.80
2019-03-27T07:27:01.360Z,16.40
2019-03-27T07:29:29.409Z,17.57
2019-03-27T07:31:57.572Z,16.40
2019-03-27T07:34:25.902Z,16.53
2019-03-27T07:36:56.139Z,16.57
2019-03-27T07:39:23.721Z,20.40
2019-03-27T07:41:51.757Z,20.00
2019-03-27T07:44:19.934Z,22.00
2019-03-27T07:46:48.002Z,20.53
2019-03-27T07:49:16.163Z,18.10
2019-03-27T07:51:44.104Z,17.40
2019-03-27T07:54:12.376Z,13.70
2019-03-27T07:56:40.606Z,16.63
2019-03-27T07:59:08.744Z,13.57
2019-03-27T08:01:36.932Z,15.93
2019-03-27T08:04:04.930Z,15.07
2019-03-27T08:06:33.038Z,19.77
2019-03-27T08:09:01.420Z,20.27
2019-03-27T08:11:30.774Z,16.83
2019-03-27T08:14:01.488Z,16.63
2019-03-27T08:16:29.535Z,16.13
2019-03-27T08:19:07.387Z,21.37
2019-03-27T08:21:27.355Z,13.07
2019-03-27T08:23:55.430Z,18.30
2019-03-27T08:26:23.454Z,13.23
2019-03-27T08:28:51.600Z,15.80
2019-03-27T08:31:19.717Z,14.30
2019-03-27T08:33:47.847Z,12.87
2019-03-27T08:36:15.876Z,14.33
2019-03-27T08:38:44.072Z,14.33
2019-03-27T08:41:12.168Z,14.87
2019-03-27T08:43:40.153Z,12.83
2019-03-27T08:46:08.245Z,11.33
2019-03-27T08:48:39.111Z,14.15
2019-03-27T08:51:06.457Z,17.17
2019-03-27T08:53:34.643Z,12.53
2019-03-27T08:56:05.143Z,15.40
2019-03-27T08:58:33.096Z,11.93
2019-03-27T09:01:01.158Z,11.60
2019-03-27T09:03:29.158Z,11.63
2019-03-27T09:05:57.227Z,10.93
2019-03-27T09:08:25.366Z,11.93
2019-03-27T09:10:53.303Z,8.63
2019-03-27T09:13:21.312Z,10.33
2019-03-27T09:15:49.346Z,12.50
2019-03-27T09:18:17.471Z,9.10
2019-03-27T09:20:45.464Z,9.67
2019-03-27T09:23:13.570Z,12.00
2019-03-27T09:25:42.759Z,11.30
2019-03-27T09:28:10.927Z,13.87
2019-03-27T09:30:38.840Z,15.33
2019-03-27T09:33:08.573Z,14.10
2019-03-27T09:35:36.903Z,8.63
2019-03-27T09:38:05.156Z,12.03
2019-03-27T09:40:33.414Z,10.33
2019-03-27T09:43:01.497Z,12.77
2019-03-27T09:45:29.611Z,11.37
2019-03-27T09:47:57.722Z,12.63
2019-03-27T09:50:26.145Z,12.27
2019-03-27T09:52:54.301Z,9.87
2019-03-27T09:55:22.290Z,9.90
2019-03-27T09:57:50.459Z,10.53
2019-03-27T10:00:40.431Z,12.07
2019-03-27T10:03:08.465Z,9.57
2019-03-27T10:05:36.568Z,6.63
2019-03-27T10:08:05.375Z,7.00
2019-03-27T10:10:33.433Z,5.53
2019-03-27T10:13:02.279Z,9.13
2019-03-27T10:15:30.418Z,8.50
2019-03-27T10:18:00.583Z,9.60
2019-03-27T10:20:28.570Z,8.70
2019-03-27T10:22:56.554Z,4.93
2019-03-27T10:25:24.739Z,7.13
2019-03-27T10:27:52.874Z,10.60
2019-03-27T10:30:21.087Z,8.27
2019-03-27T10:32:49.106Z,10.03
2019-03-27T10:35:17.370Z,6.80
2019-03-27T10:37:45.520Z,10.90
2019-03-27T10:40:13.938Z,4.40
2019-03-27T10:42:41.831Z,6.53
2019-03-27T10:45:10.079Z,5.90
2019-03-27T10:47:38.157Z,5.97
2019-03-27T10:50:16.906Z,5.60
2019-03-27T10:52:36.733Z,4.03
2019-03-27T10:55:05.438Z,4.13
2019-03-27T10:57:33.567Z,4.80
2019-03-27T11:00:01.664Z,5.93
2019-03-27T11:02:30.564Z,7.43
2019-03-27T11:05:01.623Z,3.83
2019-03-27T11:07:30.143Z,4.90
2019-03-27T11:10:00.337Z,3.20
2019-03-27T11:12:28.417Z,5.30
2019-03-27T11:14:56.539Z,5.10
2019-03-27T11:17:24.866Z,5.93
2019-03-27T11:19:52.997Z,2.63
2019-03-27T11:22:21.094Z,3.90
2019-03-27T11:24:49.289Z,3.70
2019-03-27T11:27:17.629Z,4.93
2019-03-27T11:29:45.796Z,4.80
2019-03-27T11:32:13.843Z,5.50
2019-03-27T11:34:42.018Z,4.10
2019-03-27T11:37:10.122Z,5.72
2019-03-27T11:39:38.143Z,3.20
2019-03-27T11:42:06.291Z,3.83
2019-03-27T11:44:34.205Z,4.63
2019-03-27T11:47:03.025Z,6.13
2019-03-27T11:49:32.206Z,7.57
2019-03-27T11:52:00.704Z,5.40
2019-03-27T11:54:30.114Z,4.50
2019-03-27T11:56:58.771Z,5.67
2019-03-27T11:59:26.943Z,6.80
2019-03-27T12:01:55.125Z,4.70
2019-03-27T12:04:23.310Z,4.33
2019-03-27T12:06:51.203Z,5.00
2019-03-27T12:09:19.186Z,7.63
2019-03-27T12:11:47.356Z,4.93
2019-03-27T12:14:15.426Z,8.00
2019-03-27T12:16:43.591Z,3.50
2019-03-27T12:19:11.669Z,4.50
2019-03-27T12:21:39.875Z,3.92
2019-03-27T12:24:07.934Z,5.33
2019-03-27T12:26:36.217Z,5.47
2019-03-27T12:29:04.478Z,5.07
2019-03-27T12:31:32.617Z,5.50
2019-03-27T12:34:00.775Z,5.53
2019-03-27T12:36:28.931Z,6.07
2019-03-27T12:39:00.113Z,7.00
2019-03-27T12:41:28.183Z,4.60
2019-03-27T12:43:56.394Z,5.73
2019-03-27T12:46:24.532Z,6.27
2019-03-27T12:48:53.718Z,4.60
2019-03-27T12:51:21.724Z,5.53
2019-03-27T12:53:49.660Z,4.20
2019-03-27T12:56:17.681Z,4.77
2019-03-27T12:58:45.730Z,6.83
2019-03-27T13:01:13.571Z,5.40
2019-03-27T13:03:44.326Z,5.23
2019-03-27T13:06:11.467Z,5.37
2019-03-27T13:08:39.435Z,4.47
2019-03-27T13:11:07.311Z,4.62
2019-03-27T13:13:35.447Z,5.40
2019-03-27T13:16:03.838Z,4.97
2019-03-27T13:18:31.808Z,3.57
2019-03-27T13:21:03.818Z,4.07
2019-03-27T13:23:31.890Z,6.07
2019-03-27T13:26:00.214Z,4.10
2019-03-27T13:28:28.287Z,4.63
2019-03-27T13:30:56.255Z,4.10
2019-03-27T13:33:24.391Z,5.20
2019-03-27T13:35:52.376Z,5.47
2019-03-27T13:38:20.559Z,3.33
2019-03-27T13:40:48.671Z,8.00
2019-03-27T13:43:16.962Z,4.10
2019-03-27T13:45:46.600Z,4.53
2019-03-27T13:48:14.822Z,6.60
2019-03-27T13:50:42.957Z,5.10
2019-03-27T13:53:11.053Z,5.03
2019-03-27T13:55:39.163Z,8.57
2019-03-27T13:58:07.455Z,3.83
2019-03-27T14:00:35.504Z,4.40
2019-03-27T14:03:03.905Z,5.07
2019-03-27T14:05:31.979Z,4.20
2019-03-27T14:08:02.629Z,4.87
2019-03-27T14:10:30.711Z,3.90
2019-03-27T14:12:59.250Z,5.07
2019-03-27T14:15:27.434Z,4.20
2019-03-27T14:17:55.575Z,6.20
2019-03-27T14:20:23.928Z,7.90
2019-03-27T14:22:51.959Z,8.00
2019-03-27T14:25:22.080Z,8.23
2019-03-27T14:27:50.068Z,4.60
2019-03-27T14:30:53.462Z,6.35
2019-03-27T14:55:31.272Z,6.03
2019-03-27T14:57:59.819Z,6.27
2019-03-27T15:00:27.842Z,9.53
2019-03-27T15:02:55.887Z,7.87
2019-03-27T15:05:24.060Z,6.93
2019-03-27T15:07:52.234Z,9.80
2019-03-27T15:10:20.269Z,7.40
2019-03-27T15:12:48.347Z,8.10
2019-03-27T15:15:16.630Z,11.13
2019-03-27T15:17:47.742Z,11.30
2019-03-27T15:20:16.083Z,7.77
2019-03-27T15:22:45.277Z,8.67
2019-03-27T15:25:13.418Z,9.33
2019-03-27T15:27:41.386Z,9.57
2019-03-27T15:30:12.582Z,10.60
2019-03-27T15:32:39.654Z,8.80
2019-03-27T15:35:08.270Z,8.67
2019-03-27T15:37:36.278Z,11.30
2019-03-27T15:40:05.959Z,9.90
2019-03-27T15:42:35.876Z,9.63
2019-03-27T15:45:05.199Z,8.03
2019-03-27T15:47:34.573Z,9.27
2019-03-27T15:50:03.111Z,9.00
2019-03-27T15:52:36.671Z,10.17
2019-03-27T15:55:01.306Z,12.80
2019-03-27T15:57:29.456Z,10.53
2019-03-27T15:59:57.820Z,10.70
2019-03-27T16:02:26.169Z,13.57
2019-03-27T16:04:54.308Z,11.10
2019-03-27T16:07:22.271Z,11.60
2019-03-27T16:09:50.244Z,11.50
2019-03-27T16:12:18.231Z,14.40
2019-03-27T16:14:46.299Z,11.83
2019-03-27T16:17:14.363Z,12.93
2019-03-27T16:19:42.590Z,13.47
2019-03-27T16:22:10.755Z,11.50
2019-03-27T16:24:40.166Z,12.03
2019-03-27T16:27:08.580Z,9.70
2019-03-27T16:29:36.973Z,10.33
2019-03-27T16:32:06.276Z,12.60
2019-03-27T16:34:35.281Z,11.13
2019-03-27T16:37:06.350Z,11.43
2019-03-27T16:39:34.330Z,12.90
2019-03-27T16:42:02.362Z,14.03
2019-03-27T16:44:30.516Z,11.93
2019-03-27T16:46:58.548Z,11.67
2019-03-27T16:49:26.763Z,11.17
2019-03-27T16:51:56.420Z,11.73
2019-03-27T16:54:25.150Z,11.83
2019-03-27T16:56:53.399Z,12.27
2019-03-27T16:59:21.374Z,11.60
2019-03-27T17:01:49.370Z,11.60
2019-03-27T17:04:22.910Z,12.43
2019-03-27T17:06:52.659Z,12.40
2019-03-27T17:09:35.143Z,13.50
2019-03-27T17:12:23.857Z,12.67
2019-03-27T17:14:58.854Z,11.97
2019-03-27T17:17:53.553Z,15.00
2019-03-27T17:20:22.486Z,16.30
2019-03-27T17:22:50.563Z,11.70
2019-03-27T17:25:18.579Z,13.30
2019-03-27T17:27:47.542Z,14.37
2019-03-27T17:30:16.366Z,11.70
2019-03-27T17:32:44.570Z,13.60
2019-03-27T17:35:12.586Z,13.97
2019-03-27T17:37:40.746Z,13.97
2019-03-27T17:40:09.710Z,14.60
2019-03-27T17:42:37.902Z,14.47
2019-03-27T17:45:06.507Z,12.10
2019-03-27T17:47:34.559Z,15.37
2019-03-27T17:50:02.683Z,15.17
2019-03-27T17:52:30.749Z,14.00
2019-03-27T17:54:58.721Z,13.30
2019-03-27T17:57:26.760Z,12.70
2019-03-27T17:59:54.803Z,14.90
2019-03-27T18:02:23.014Z,13.37
2019-03-27T18:04:51.117Z,12.63
2019-03-27T18:08:12.452Z,13.53
2019-03-27T18:10:40.499Z,14.70
2019-03-27T18:13:08.735Z,12.97
2019-03-27T18:15:36.784Z,15.93
2019-03-27T18:18:05.050Z,13.23
2019-03-27T18:20:33.356Z,11.80
2019-03-27T18:23:02.829Z,15.50
2019-03-27T18:25:30.814Z,11.63
2019-03-27T18:27:59.139Z,14.17
2019-03-27T18:30:28.395Z,15.80
2019-03-27T18:32:56.459Z,12.83
2019-03-27T18:35:24.560Z,13.50
2019-03-27T18:37:54.634Z,10.23
2019-03-27T18:40:22.614Z,11.73
2019-03-27T18:42:52.195Z,11.53
2019-03-27T18:45:20.243Z,13.00
2019-03-27T18:47:48.315Z,9.40
2019-03-27T18:50:16.464Z,14.03
2019-03-27T18:52:44.663Z,11.10
2019-03-27T18:55:25.463Z,13.65
2019-03-27T18:57:42.556Z,12.45
2019-03-27T19:00:10.623Z,14.80
2019-03-27T19:02:38.766Z,10.63
2019-03-27T19:05:08.461Z,11.50
2019-03-27T19:07:36.511Z,15.83
2019-03-27T19:10:05.319Z,12.30
2019-03-27T19:12:34.615Z,11.77
2019-03-27T19:15:03.295Z,15.23
2019-03-27T19:17:31.337Z,14.97
2019-03-27T19:19:59.338Z,17.80
2019-03-27T19:22:27.377Z,12.30
2019-03-27T19:24:55.349Z,13.73
2019-03-27T19:27:23.474Z,14.20
2019-03-27T19:29:51.558Z,16.83
2019-03-27T19:32:19.722Z,15.83
2019-03-27T19:34:50.938Z,14.80
2019-03-27T19:37:17.558Z,11.80
2019-03-27T19:39:48.939Z,14.00
2019-03-27T19:42:17.055Z,14.53
2019-03-27T19:44:44.970Z,15.03
2019-03-27T19:47:13.099Z,16.13
2019-03-27T19:49:41.153Z,14.63
2019-03-27T19:52:09.089Z,17.93
2019-03-27T19:54:37.138Z,14.33
2019-03-27T19:57:05.314Z,15.80
2019-03-27T19:59:33.294Z,10.80
2019-03-27T20:02:01.369Z,11.93
2019-03-27T20:04:29.453Z,14.97
2019-03-27T20:06:57.587Z,12.83
2019-03-27T20:09:25.642Z,11.53
2019-03-27T20:11:53.895Z,15.80
2019-03-27T20:14:22.037Z,10.13
2019-03-27T20:16:50.210Z,11.00
2019-03-27T20:19:18.386Z,10.73
2019-03-27T20:21:47.454Z,12.53
2019-03-27T20:24:15.764Z,16.50
2019-03-27T20:26:44.151Z,13.57
2019-03-27T20:29:12.359Z,20.97
2019-03-27T20:31:40.376Z,15.00
2019-03-27T20:34:08.466Z,11.10
2019-03-27T20:36:36.639Z,13.38
2019-03-27T20:39:07.299Z,14.10
2019-03-27T20:41:35.805Z,14.77
2019-03-27T20:44:04.110Z,13.27
2019-03-27T20:46:32.298Z,14.70
2019-03-27T20:49:00.517Z,9.87
2019-03-27T20:51:28.504Z,15.37
2019-03-27T20:53:56.535Z,12.33
2019-03-27T20:56:24.586Z,12.57
2019-03-27T20:59:01.493Z,14.27
2019-03-27T21:01:30.275Z,11.60
2019-03-27T21:03:58.354Z,12.17
2019-03-27T21:06:26.462Z,10.80
2019-03-27T21:08:54.550Z,9.27
2019-03-27T21:11:22.531Z,12.43
2019-03-27T21:13:50.583Z,11.27
2019-03-27T21:16:18.618Z,10.40
2019-03-27T21:18:47.088Z,8.67
2019-03-27T21:21:15.162Z,11.53
2019-03-27T21:23:43.280Z,8.23
2019-03-27T21:26:11.311Z,10.73
2019-03-27T21:28:39.274Z,12.25
2019-03-27T21:31:07.514Z,12.57
2019-03-27T21:33:35.607Z,10.33
2019-03-27T21:36:23.249Z,9.80
2019-03-27T21:38:51.377Z,10.17
2019-03-27T21:41:19.503Z,11.60
2019-03-27T21:43:47.970Z,9.00
2019-03-27T21:46:16.031Z,12.13
2019-03-27T21:48:44.256Z,10.80
2019-03-27T21:51:12.340Z,9.70
2019-03-27T21:53:40.266Z,9.73
2019-03-27T21:56:08.327Z,11.17
2019-03-27T21:58:36.535Z,11.57
2019-03-27T22:01:07.832Z,9.43
2019-03-27T22:03:35.829Z,11.20
2019-03-27T22:06:04.155Z,8.63
2019-03-27T22:08:32.119Z,9.43
2019-03-27T22:11:00.371Z,7.80
2019-03-27T22:13:28.343Z,11.03
2019-03-27T22:15:56.471Z,10.98
2019-03-27T22:18:24.539Z,9.90
2019-03-27T22:20:52.679Z,13.10
2019-03-27T22:23:20.537Z,9.93
2019-03-27T22:25:48.957Z,9.37
2019-03-27T22:28:17.178Z,10.73
2019-03-27T22:30:45.238Z,13.83
2019-03-27T22:33:13.343Z,12.07
2019-03-27T22:35:41.331Z,13.77
2019-03-27T22:38:09.339Z,11.70
2019-03-27T22:40:37.389Z,6.93
2019-03-27T22:43:05.490Z,11.30
2019-03-27T22:45:33.619Z,12.30
2019-03-27T22:48:01.710Z,6.50
2019-03-27T22:50:29.653Z,10.10
2019-03-27T22:52:57.754Z,12.07
2019-03-27T22:55:28.721Z,6.67
2019-03-27T22:57:56.756Z,6.30
2019-03-27T23:00:44.854Z,9.33
2019-03-27T23:03:18.627Z,7.33
2019-03-27T23:05:44.345Z,8.10
2019-03-27T23:08:12.361Z,8.87
2019-03-27T23:10:40.451Z,9.73
2019-03-27T23:13:10.480Z,11.90
2019-03-27T23:15:38.594Z,10.80
2019-03-27T23:18:07.769Z,8.53
2019-03-27T23:20:35.821Z,11.53
2019-03-27T23:23:04.201Z,10.33
2019-03-27T23:25:32.215Z,9.77
2019-03-27T23:28:03.373Z,10.70
2019-03-27T23:30:31.441Z,9.77
2019-03-27T23:33:03.817Z,8.83
2019-03-27T23:35:31.919Z,11.13
2019-03-27T23:38:00.241Z,9.30
2019-03-27T23:40:28.479Z,11.03
2019-03-27T23:42:56.466Z,7.50
2019-03-27T23:45:24.406Z,8.23
2019-03-27T23:47:54.946Z,12.00
2019-03-27T23:50:23.358Z,17.20
2019-03-27T23:52:51.417Z,9.97
2019-03-27T23:55:19.522Z,10.73
2019-03-27T23:57:50.101Z,13.67
